createdAt,value
2023-02-17T09:44:17.615Z,24.09
2023-02-17T09:46:59.515Z,24.20
2023-02-17T09:49:10.356Z,24.18
2023-02-17T09:51:36.709Z,24.14
2023-02-17T09:54:03.100Z,24.15
2023-02-17T09:56:29.462Z,24.08
2023-02-17T09:58:55.926Z,24.08
2023-02-17T10:01:22.282Z,24.12
2023-02-17T10:03:48.608Z,24.10
2023-02-17T10:06:14.951Z,24.11
2023-02-17T10:08:41.372Z,24.19
2023-02-17T10:11:07.715Z,24.09
2023-02-17T10:13:34.147Z,24.14
2023-02-17T10:16:00.457Z,24.12
2023-02-17T10:18:26.876Z,24.13
2023-02-17T10:20:53.227Z,24.16
2023-02-17T10:23:19.565Z,24.15
2023-02-17T10:25:45.976Z,24.16
2023-02-17T10:28:12.319Z,24.14
2023-02-17T10:30:38.785Z,24.15
2023-02-17T10:33:05.074Z,24.17
2023-02-17T10:35:31.463Z,24.17
2023-02-17T10:37:57.835Z,24.24
2023-02-17T10:40:24.185Z,24.28
2023-02-17T10:42:50.731Z,24.35
2023-02-17T10:45:16.969Z,24.48
2023-02-17T10:47:43.426Z,24.35
2023-02-17T10:50:09.801Z,24.55
2023-02-17T10:52:36.184Z,24.49
2023-02-17T10:55:06.593Z,24.38
2023-02-17T10:57:28.946Z,24.19
2023-02-17T10:59:55.276Z,24.29
2023-02-17T11:02:21.675Z,24.24
2023-02-17T11:04:48.025Z,24.21
2023-02-17T11:07:14.412Z,24.15
2023-02-17T11:09:40.759Z,24.17
2023-02-17T11:12:07.160Z,24.14
2023-02-17T11:14:33.505Z,24.11
2023-02-17T11:16:59.947Z,24.06
2023-02-17T11:19:28.727Z,24.03
2023-02-17T11:21:55.090Z,24.04
2023-02-17T11:24:21.418Z,24.05
2023-02-17T11:26:47.794Z,24.02
2023-02-17T11:29:14.142Z,24.05
2023-02-17T11:31:40.622Z,24.02
2023-02-17T11:34:06.889Z,24.04
2023-02-17T11:36:33.360Z,24.03
2023-02-17T11:38:59.719Z,24.00
2023-02-17T11:41:26.096Z,24.04
2023-02-17T11:43:52.438Z,24.05
2023-02-17T11:46:18.861Z,24.05
2023-02-17T11:48:45.161Z,24.09
2023-02-17T11:51:11.536Z,24.10
2023-02-17T11:53:37.902Z,24.06
2023-02-17T11:56:04.668Z,24.11
2023-02-17T11:58:30.636Z,24.02
2023-02-17T12:00:58.340Z,24.03
2023-02-17T12:03:23.398Z,24.08
2023-02-17T12:05:49.755Z,24.06
2023-02-17T12:08:16.101Z,24.09
2023-02-17T12:10:42.483Z,24.04
2023-02-17T12:13:08.825Z,24.12
2023-02-17T12:15:35.296Z,24.11
2023-02-17T12:18:01.565Z,24.14
2023-02-17T12:20:27.961Z,24.18
2023-02-17T12:22:54.304Z,24.16
2023-02-17T12:25:20.702Z,24.20
2023-02-17T12:27:47.062Z,24.21
2023-02-17T12:30:13.570Z,24.24
2023-02-17T12:32:39.856Z,24.21
2023-02-17T12:35:06.235Z,24.15
2023-02-17T12:37:32.590Z,24.13
2023-02-17T12:39:58.973Z,24.13
2023-02-17T12:42:25.316Z,24.15
2023-02-17T12:44:51.730Z,24.19
2023-02-17T12:47:18.078Z,24.21
2023-02-17T12:49:44.475Z,24.18
2023-02-17T12:52:10.820Z,24.20
2023-02-17T12:54:37.236Z,24.23
2023-02-17T12:57:03.590Z,24.23
2023-02-17T12:59:29.981Z,24.28
2023-02-17T13:01:56.319Z,24.27
2023-02-17T13:04:22.712Z,24.27
2023-02-17T13:06:49.069Z,24.29
2023-02-17T13:09:15.450Z,24.30
2023-02-17T13:11:41.852Z,24.31
2023-02-17T13:14:08.291Z,24.31
2023-02-17T13:16:34.648Z,24.33
2023-02-17T13:19:01.036Z,24.35
2023-02-17T13:21:27.732Z,24.34
2023-02-17T13:23:54.111Z,24.33
2023-02-17T13:26:20.470Z,24.36
2023-02-17T13:28:46.874Z,24.35
2023-02-17T13:31:13.330Z,24.33
2023-02-17T13:33:39.620Z,24.32
2023-02-17T13:36:06.266Z,24.33
2023-02-17T13:38:32.454Z,24.35
2023-02-17T13:40:58.749Z,24.36
2023-02-17T13:43:27.267Z,24.36
2023-02-17T13:45:53.668Z,24.39
2023-02-17T13:48:20.057Z,24.36
2023-02-17T13:50:46.415Z,24.40
2023-02-17T13:53:12.853Z,24.40
2023-02-17T13:55:39.184Z,24.42
2023-02-17T13:58:05.590Z,24.43
2023-02-17T14:00:31.946Z,24.42
2023-02-17T14:02:58.349Z,24.44
2023-02-17T14:05:24.719Z,24.43
2023-02-17T14:07:51.112Z,24.41
2023-02-17T14:10:17.469Z,24.43
2023-02-17T14:12:43.903Z,24.40
2023-02-17T14:15:10.258Z,24.43
2023-02-17T14:17:36.665Z,24.44
2023-02-17T14:20:03.043Z,24.46
2023-02-17T14:22:29.423Z,24.49
2023-02-17T14:24:55.768Z,24.50
2023-02-17T14:27:22.165Z,24.51
2023-02-17T14:29:48.528Z,24.46
2023-02-17T14:32:14.979Z,24.48
2023-02-17T14:34:41.255Z,24.45
2023-02-17T14:37:07.698Z,24.44
2023-02-17T14:39:34.047Z,24.45
2023-02-17T14:42:00.476Z,24.46
2023-02-17T14:44:26.820Z,24.46
2023-02-17T14:46:53.248Z,24.43
2023-02-17T14:49:20.540Z,24.43
2023-02-17T14:51:45.987Z,24.45
2023-02-17T14:54:12.327Z,24.44
2023-02-17T14:56:38.730Z,24.46
2023-02-17T14:59:05.068Z,24.43
2023-02-17T15:01:31.516Z,24.43
2023-02-17T15:03:57.842Z,24.42
2023-02-17T15:06:26.060Z,24.41
2023-02-17T15:08:50.576Z,24.41
2023-02-17T15:11:16.974Z,24.40
2023-02-17T15:13:43.335Z,24.38
2023-02-17T15:16:10.106Z,24.38
2023-02-17T15:18:36.073Z,24.40
2023-02-17T15:21:02.470Z,24.39
2023-02-17T15:23:28.829Z,24.39
2023-02-17T15:25:55.206Z,24.39
2023-02-17T15:28:21.541Z,24.41
2023-02-17T15:30:47.931Z,24.41
2023-02-17T15:33:14.280Z,24.39
2023-02-17T15:35:40.668Z,24.40
2023-02-17T15:38:07.011Z,24.39
2023-02-17T15:40:33.395Z,24.41
2023-02-17T15:42:59.732Z,24.43
2023-02-17T15:45:26.125Z,24.42
2023-02-17T15:47:53.830Z,24.41
2023-02-17T15:50:20.168Z,24.41
2023-02-17T15:52:45.202Z,24.39
2023-02-17T15:55:11.573Z,24.41
2023-02-17T15:57:37.915Z,24.40
2023-02-17T16:00:04.319Z,24.41
2023-02-17T16:02:30.639Z,24.38
2023-02-17T16:04:57.045Z,24.39
2023-02-17T16:07:23.366Z,24.38
2023-02-17T16:09:49.801Z,24.30
2023-02-17T16:12:16.127Z,24.35
2023-02-17T16:14:42.509Z,24.32
2023-02-17T16:17:08.842Z,24.32
2023-02-17T16:19:35.231Z,24.31
2023-02-17T16:22:01.589Z,24.30
2023-02-17T16:24:27.965Z,24.30
2023-02-17T16:26:54.341Z,24.31
2023-02-17T16:29:20.726Z,24.29
2023-02-17T16:31:47.170Z,24.28
2023-02-17T16:34:13.490Z,24.29
2023-02-17T16:36:39.844Z,24.25
2023-02-17T16:39:06.258Z,24.25
2023-02-17T16:41:32.601Z,24.24
2023-02-17T16:43:59.005Z,24.25
2023-02-17T16:46:25.347Z,24.25
2023-02-17T16:48:51.730Z,24.24
2023-02-17T16:51:18.080Z,24.21
2023-02-17T16:53:44.453Z,24.20
2023-02-17T16:56:10.795Z,24.21
2023-02-17T16:58:37.177Z,24.20
2023-02-17T17:01:03.518Z,24.21
2023-02-17T17:03:29.990Z,24.19
2023-02-17T17:05:56.254Z,24.17
2023-02-17T17:08:22.669Z,24.17
2023-02-17T17:10:49.009Z,24.16
2023-02-17T17:13:15.395Z,24.16
2023-02-17T17:15:41.739Z,24.15
2023-02-17T17:18:08.120Z,24.14
2023-02-17T17:20:34.457Z,24.11
2023-02-17T17:23:00.840Z,24.13
2023-02-17T17:25:27.179Z,24.11
2023-02-17T17:27:53.571Z,24.11
2023-02-17T17:30:19.933Z,24.09
2023-02-17T17:32:46.275Z,24.08
2023-02-17T17:35:12.621Z,24.06
2023-02-17T17:37:39.658Z,24.04
2023-02-17T17:40:05.328Z,24.04
2023-02-17T17:42:31.714Z,24.04
2023-02-17T17:44:58.049Z,24.04
2023-02-17T17:47:29.838Z,24.02
2023-02-17T17:49:50.777Z,24.01
2023-02-17T17:52:17.167Z,23.99
2023-02-17T17:54:43.502Z,23.98
2023-02-17T17:57:09.911Z,23.96
2023-02-17T17:59:36.229Z,23.95
2023-02-17T18:02:02.645Z,23.96
2023-02-17T18:04:29.079Z,23.95
2023-02-17T18:06:57.077Z,23.94
2023-02-17T18:09:31.320Z,23.91
2023-02-17T18:11:48.148Z,23.89
2023-02-17T18:14:14.511Z,23.89
2023-02-17T18:16:40.900Z,23.87
2023-02-17T18:19:07.234Z,23.85
2023-02-17T18:21:33.644Z,23.84
2023-02-17T18:23:59.978Z,23.84
2023-02-17T18:26:26.351Z,23.84
2023-02-17T18:28:52.701Z,23.85
2023-02-17T18:31:19.254Z,23.82
2023-02-17T18:33:45.469Z,23.83
2023-02-17T18:36:11.855Z,23.80
2023-02-17T18:38:38.201Z,23.80
2023-02-17T18:41:04.580Z,23.77
2023-02-17T18:43:30.929Z,23.77
2023-02-17T18:45:57.315Z,23.75
2023-02-17T18:48:23.657Z,23.75
2023-02-17T18:50:50.028Z,23.75
2023-02-17T18:53:16.361Z,23.74
2023-02-17T18:55:42.769Z,23.73
2023-02-17T18:58:10.995Z,23.69
2023-02-17T19:00:35.491Z,23.68
2023-02-17T19:03:01.879Z,23.66
2023-02-17T19:05:28.237Z,23.66
2023-02-17T19:07:54.583Z,23.65
2023-02-17T19:10:20.971Z,23.65
2023-02-17T19:12:47.314Z,23.62
2023-02-17T19:15:13.706Z,23.61
2023-02-17T19:17:40.053Z,23.59
2023-02-17T19:20:06.440Z,23.58
2023-02-17T19:22:32.798Z,23.58
2023-02-17T19:24:59.179Z,23.58
2023-02-17T19:27:25.522Z,23.56
2023-02-17T19:29:51.904Z,23.54
2023-02-17T19:32:18.292Z,23.52
2023-02-17T19:34:44.649Z,23.51
2023-02-17T19:37:10.981Z,23.50
2023-02-17T19:39:37.384Z,23.50
2023-02-17T19:42:03.730Z,23.49
2023-02-17T19:44:30.097Z,23.45
2023-02-17T19:46:56.449Z,23.46
2023-02-17T19:49:22.841Z,23.44
2023-02-17T19:51:49.224Z,23.42
2023-02-17T19:54:15.599Z,23.41
2023-02-17T19:56:41.984Z,23.39
2023-02-17T19:59:08.321Z,23.39
2023-02-17T20:01:34.700Z,23.38
2023-02-17T20:04:01.057Z,23.35
2023-02-17T20:06:27.443Z,23.35
2023-02-17T20:08:53.795Z,23.35
2023-02-17T20:11:20.177Z,23.35
2023-02-17T20:13:46.894Z,23.32
2023-02-17T20:16:12.986Z,23.30
2023-02-17T20:18:39.266Z,23.29
2023-02-17T20:21:05.649Z,23.29
2023-02-17T20:23:32.039Z,23.27
2023-02-17T20:25:58.577Z,23.26
2023-02-17T20:28:25.117Z,23.26
2023-02-17T20:30:51.133Z,23.27
2023-02-17T20:33:17.469Z,23.26
2023-02-17T20:35:43.874Z,23.25
2023-02-17T20:38:10.219Z,23.23
2023-02-17T20:40:36.604Z,23.23
2023-02-17T20:43:02.954Z,23.23
2023-02-17T20:45:29.349Z,23.22
2023-02-17T20:47:55.697Z,23.20
2023-02-17T20:50:22.110Z,23.18
2023-02-17T20:52:48.698Z,23.18
2023-02-17T20:55:14.899Z,23.18
2023-02-17T20:57:41.240Z,23.15
2023-02-17T21:00:07.629Z,23.15
2023-02-17T21:02:34.013Z,23.15
2023-02-17T21:05:00.368Z,23.12
2023-02-17T21:07:26.699Z,23.12
2023-02-17T21:09:53.083Z,23.12
2023-02-17T21:12:19.420Z,23.11
2023-02-17T21:14:46.221Z,23.11
2023-02-17T21:17:12.149Z,23.11
2023-02-17T21:19:38.551Z,23.09
2023-02-17T21:22:04.902Z,23.07
2023-02-17T21:24:31.282Z,23.07
2023-02-17T21:26:57.694Z,23.05
2023-02-17T21:29:24.079Z,23.05
2023-02-17T21:31:50.505Z,23.05
2023-02-17T21:34:16.842Z,23.03
2023-02-17T21:36:43.175Z,23.00
2023-02-17T21:39:09.563Z,22.99
2023-02-17T21:41:35.946Z,22.99
2023-02-17T21:44:02.324Z,22.99
2023-02-17T21:46:28.661Z,22.98
2023-02-17T21:48:55.049Z,22.97
2023-02-17T21:51:21.393Z,22.97
2023-02-17T21:53:47.773Z,22.96
2023-02-17T21:56:14.120Z,22.95
2023-02-17T21:58:40.499Z,22.95
2023-02-17T22:01:06.896Z,22.93
2023-02-17T22:03:33.228Z,22.92
2023-02-17T22:05:59.565Z,22.91
2023-02-17T22:08:25.956Z,22.90
2023-02-17T22:10:52.286Z,22.88
2023-02-17T22:13:18.673Z,22.91
2023-02-17T22:15:45.015Z,22.87
2023-02-17T22:18:11.410Z,22.87
2023-02-17T22:20:37.761Z,22.86
2023-02-17T22:23:04.141Z,22.84
2023-02-17T22:25:30.503Z,22.86
2023-02-17T22:27:56.924Z,22.84
2023-02-17T22:30:24.325Z,22.83
2023-02-17T22:32:49.703Z,22.82
2023-02-17T22:35:16.049Z,22.81
2023-02-17T22:37:42.434Z,22.80
2023-02-17T22:40:08.769Z,22.81
2023-02-17T22:42:35.201Z,22.79
2023-02-17T22:45:01.534Z,22.80
2023-02-17T22:47:27.928Z,22.78
2023-02-17T22:49:54.269Z,22.78
2023-02-17T22:52:20.660Z,22.77
2023-02-17T22:54:47.007Z,22.77
2023-02-17T22:57:14.827Z,22.76
2023-02-17T22:59:39.734Z,22.73
2023-02-17T23:02:06.144Z,22.71
2023-02-17T23:04:32.515Z,22.73
2023-02-17T23:06:58.854Z,22.73
2023-02-17T23:09:25.202Z,22.72
2023-02-17T23:11:51.584Z,22.71
2023-02-17T23:14:17.969Z,22.70
2023-02-17T23:16:44.358Z,22.69
2023-02-17T23:19:10.691Z,22.68
2023-02-17T23:21:37.056Z,22.68
2023-02-17T23:24:03.410Z,22.68
2023-02-17T23:26:29.796Z,22.68
2023-02-17T23:28:56.165Z,22.65
2023-02-17T23:31:22.654Z,22.64
2023-02-17T23:33:48.895Z,22.64
2023-02-17T23:36:15.293Z,22.63
2023-02-17T23:38:41.664Z,22.62
2023-02-17T23:41:08.047Z,22.64
2023-02-17T23:43:34.397Z,22.62
2023-02-17T23:46:00.852Z,22.61
2023-02-17T23:48:27.128Z,22.60
2023-02-17T23:50:53.503Z,22.58
2023-02-17T23:53:19.849Z,22.57
2023-02-17T23:55:46.235Z,22.56
2023-02-17T23:58:12.569Z,22.56
